createdAt,value
2016-02-27T00:02:33.129Z,-4
2016-02-27T00:05:46.168Z,-4.1
2016-02-27T00:08:59.880Z,-4.1
2016-02-27T00:12:07.356Z,-4.1
2016-02-27T00:15:09.943Z,-4
2016-02-27T00:18:19.482Z,-4.1
2016-02-27T00:21:28.990Z,-4
2016-02-27T00:24:37.735Z,-4
2016-02-27T00:27:45.868Z,-4
2016-02-27T00:31:01.001Z,-4
2016-02-27T00:34:03.494Z,-4.1
2016-02-27T00:37:15.736Z,-4.1
2016-02-27T00:40:28.276Z,-4.2
2016-02-27T00:43:40.724Z,-4.2
2016-02-27T00:46:53.092Z,-4.2
2016-02-27T00:50:04.787Z,-4.2
2016-02-27T00:53:17.358Z,-4.2
2016-02-27T00:56:29.991Z,-4.2
2016-02-27T00:59:42.595Z,-4.2
2016-02-27T01:03:00.244Z,-4.3
2016-02-27T01:06:07.674Z,-4.3
2016-02-27T01:09:10.229Z,-4.3
2016-02-27T01:12:22.643Z,-4.2
2016-02-27T01:15:35.026Z,-4.2
2016-02-27T01:18:45.770Z,-4.2
2016-02-27T01:22:03.092Z,-4.3
2016-02-27T01:25:05.615Z,-4.3
2016-02-27T01:28:19.873Z,-4.3
2016-02-27T01:31:27.304Z,-4.3
2016-02-27T01:34:39.674Z,-4.3
2016-02-27T01:37:51.697Z,-4.4
2016-02-27T01:41:09.018Z,-4.4
2016-02-27T01:44:11.620Z,-4.4
2016-02-27T01:47:24.174Z,-4.4
2016-02-27T01:50:36.464Z,-4.5
2016-02-27T01:53:48.990Z,-4.4
2016-02-27T01:57:06.311Z,-4.5
2016-02-27T02:00:08.772Z,-4.4
2016-02-27T02:03:19.374Z,-4.4
2016-02-27T02:06:31.836Z,-4.4
2016-02-27T02:09:43.830Z,-4.4
2016-02-27T02:13:01.073Z,-4.4
2016-02-27T02:16:08.332Z,-4.4
2016-02-27T02:19:10.651Z,-4.5
2016-02-27T02:22:20.768Z,-4.5
2016-02-27T02:25:32.637Z,-4.5
2016-02-27T02:28:44.944Z,-4.5
2016-02-27T02:32:02.202Z,-4.5
2016-02-27T02:35:09.554Z,-4.5
2016-02-27T02:38:11.890Z,-4.5
2016-02-27T02:41:23.991Z,-4.5
2016-02-27T02:44:33.282Z,-4.6
2016-02-27T02:47:42.385Z,-4.6
2016-02-27T02:50:54.629Z,-4.6
2016-02-27T02:54:06.730Z,-4.6
2016-02-27T02:57:15.909Z,-4.7
2016-02-27T03:00:28.183Z,-4.7
2016-02-27T03:03:40.301Z,-4.7
2016-02-27T03:06:52.702Z,-4.7
2016-02-27T03:10:08.586Z,-4.6
2016-02-27T03:13:10.797Z,-4.6
2016-02-27T03:16:22.945Z,-4.7
2016-02-27T03:19:35.376Z,-4.6
2016-02-27T03:22:47.370Z,-4.6
2016-02-27T03:26:01.988Z,-4.6
2016-02-27T03:29:09.246Z,-4.6
2016-02-27T03:32:11.536Z,-4.6
2016-02-27T03:35:20.933Z,-4.6
2016-02-27T03:38:33.052Z,-4.7
2016-02-27T03:41:45.171Z,-4.7
2016-02-27T03:44:54.024Z,-4.7
2016-02-27T03:48:06.157Z,-4.7
2016-02-27T03:51:18.539Z,-4.7
2016-02-27T03:54:28.063Z,-4.7
2016-02-27T03:57:39.962Z,-4.7
2016-02-27T04:00:51.504Z,-4.7
2016-02-27T04:04:08.137Z,-4.7
2016-02-27T04:07:10.113Z,-4.8
2016-02-27T04:10:19.169Z,-4.7
2016-02-27T04:13:31.114Z,-4.8
2016-02-27T04:16:43.247Z,-4.7
2016-02-27T04:20:00.321Z,-4.7
2016-02-27T04:23:07.579Z,-4.7
2016-02-27T04:26:09.493Z,-4.7
2016-02-27T04:29:19.407Z,-4.7
2016-02-27T04:32:30.987Z,-4.7
2016-02-27T04:35:42.870Z,-4.8
2016-02-27T04:39:02.063Z,-4.8
2016-02-27T04:42:09.254Z,-4.7
2016-02-27T04:45:11.165Z,-4.8
2016-02-27T04:48:23.107Z,-4.8
2016-02-27T04:51:34.989Z,-4.7
2016-02-27T04:54:44.996Z,-4.7
2016-02-27T04:57:53.709Z,-4.7
2016-02-27T05:01:05.686Z,-4.7
2016-02-27T05:04:17.305Z,-4.8
2016-02-27T05:07:27.140Z,-4.8
2016-02-27T05:10:41.196Z,-4.9
2016-02-27T05:13:53.315Z,-4.9
2016-02-27T05:17:05.464Z,-4.9
2016-02-27T05:20:15.066Z,-4.8
2016-02-27T05:23:24.948Z,-4.9
2016-02-27T05:26:36.957Z,-4.9
2016-02-27T05:29:49.140Z,-4.9
2016-02-27T05:33:06.194Z,-4.9
2016-02-27T05:36:08.203Z,-5
2016-02-27T05:39:20.148Z,-5
2016-02-27T05:42:32.250Z,-5
2016-02-27T05:45:42.055Z,-5
2016-02-27T05:48:54.081Z,-4.9
2016-02-27T05:52:09.230Z,-4.9
2016-02-27T05:55:11.223Z,-4.9
2016-02-27T05:58:23.262Z,-4.9
2016-02-27T06:01:35.348Z,-4.9
2016-02-27T06:04:47.528Z,-4.9
2016-02-27T06:08:04.507Z,-4.8
2016-02-27T06:11:06.516Z,-4.7
2016-02-27T06:14:18.461Z,-4.6
2016-02-27T06:17:28.360Z,-4.5
2016-02-27T06:20:40.430Z,-4.4
2016-02-27T06:23:51.972Z,-4.4
2016-02-27T06:27:06.668Z,-4.3
2016-02-27T06:30:08.848Z,-4.1
2016-02-27T06:33:18.465Z,-4
2016-02-27T06:36:29.489Z,-3.8
2016-02-27T06:39:41.622Z,-3.6
2016-02-27T06:42:53.320Z,-3.5
2016-02-27T06:46:09.969Z,-3.3
2016-02-27T06:49:12.258Z,-3.1
2016-02-27T06:52:22.704Z,-3
2016-02-27T06:55:34.774Z,-2.8
2016-02-27T06:58:43.876Z,-2.6
2016-02-27T07:02:00.559Z,-2.4
2016-02-27T07:05:07.817Z,-2.1
2016-02-27T07:08:10.076Z,-1.9
2016-02-27T07:11:19.646Z,-1.7
2016-02-27T07:14:29.169Z,-1.5
2016-02-27T07:17:41.381Z,-1.3
2016-02-27T07:20:53.841Z,-0.9
2016-02-27T07:24:06.197Z,-0.4
2016-02-27T07:27:15.970Z,0
2016-02-27T07:30:28.572Z,0.4
2016-02-27T07:33:38.877Z,0.8
2016-02-27T07:36:51.463Z,1.2
2016-02-27T07:40:06.068Z,1.9
2016-02-27T07:43:08.778Z,2.2
2016-02-27T07:46:19.661Z,2.5
2016-02-27T07:49:34.374Z,2.8
2016-02-27T07:52:47.397Z,3.4
2016-02-27T07:56:05.470Z,4
2016-02-27T07:59:08.853Z,5
2016-02-27T08:02:20.189Z,6.1
2016-02-27T08:05:35.776Z,7
2016-02-27T08:08:46.362Z,7.6
2016-02-27T08:12:05.028Z,7.6
2016-02-27T08:15:08.755Z,7.8
2016-02-27T08:18:22.388Z,7.9
2016-02-27T08:21:35.928Z,7.7
2016-02-27T08:24:47.748Z,7.6
2016-02-27T08:28:04.103Z,7.7
2016-02-27T08:31:08.143Z,8.4
2016-02-27T08:34:20.009Z,9.4
2016-02-27T08:37:30.643Z,11
2016-02-27T08:40:42.995Z,12.7
2016-02-27T08:44:02.881Z,14.4
2016-02-27T08:47:08.341Z,15.3
2016-02-27T08:50:20.631Z,15.5
2016-02-27T08:53:35.608Z,15.2
2016-02-27T08:56:50.335Z,14.7
2016-02-27T09:00:09.814Z,14.7
2016-02-27T09:03:15.041Z,14.9
2016-02-27T09:06:30.126Z,15.1
2016-02-27T09:09:42.041Z,16.1
2016-02-27T09:12:54.784Z,17
2016-02-27T09:16:09.779Z,17.5
2016-02-27T09:19:24.896Z,17.9
2016-02-27T09:22:36.935Z,18.3
2016-02-27T09:25:50.021Z,18.4
2016-02-27T09:29:10.033Z,19.6
2016-02-27T09:32:15.509Z,19.6
2016-02-27T09:35:28.454Z,19.3
2016-02-27T09:38:41.588Z,19.3
2016-02-27T09:42:01.083Z,19
2016-02-27T09:45:06.170Z,18.4
2016-02-27T09:48:17.958Z,17.9
2016-02-27T09:51:30.044Z,17.4
2016-02-27T09:54:46.241Z,17.3
2016-02-27T09:58:03.330Z,17.2
2016-02-27T10:01:07.321Z,16.5
2016-02-27T10:04:20.486Z,14.8
2016-02-27T10:07:33.509Z,13.5
2016-02-27T10:10:44.081Z,12.7
2016-02-27T10:14:01.417Z,11.9
2016-02-27T10:17:09.443Z,11
2016-02-27T10:20:12.514Z,9.9
2016-02-27T10:23:25.302Z,9.1
2016-02-27T10:26:36.139Z,8.9
2016-02-27T10:29:46.866Z,8.8
2016-02-27T10:33:01.202Z,8
2016-02-27T10:36:09.556Z,7.6
2016-02-27T10:39:13.173Z,7.8
2016-02-27T10:42:23.964Z,7.7
2016-02-27T10:45:33.784Z,7.5
2016-02-27T10:48:46.776Z,7.1
2016-02-27T10:52:04.740Z,6.9
2016-02-27T10:55:07.639Z,6.6
2016-02-27T10:58:18.522Z,6.3
2016-02-27T11:01:30.999Z,6.3
2016-02-27T11:04:40.788Z,6.2
2016-02-27T11:07:49.109Z,6.2
2016-02-27T11:11:08.587Z,6.1
2016-02-27T11:14:10.846Z,6
2016-02-27T11:17:23.354Z,6.1
2016-02-27T11:20:35.628Z,6
2016-02-27T11:23:47.199Z,5.6
2016-02-27T11:27:03.550Z,5.4
2016-02-27T11:30:10.108Z,5.3
2016-02-27T11:33:11.600Z,5.5
2016-02-27T11:36:23.765Z,5.3
2016-02-27T11:39:36.023Z,5.3
2016-02-27T11:42:48.140Z,5.5
2016-02-27T11:46:05.071Z,5.8
2016-02-27T11:49:07.534Z,5.9
2016-02-27T11:52:18.027Z,5.6
2016-02-27T11:55:27.863Z,5.6
2016-02-27T11:58:40.496Z,5.4
2016-02-27T12:01:53.067Z,5.2
2016-02-27T12:05:09.530Z,5.1
2016-02-27T12:08:12.523Z,5.2
2016-02-27T12:11:23.624Z,5.2
2016-02-27T12:14:36.429Z,5.1
2016-02-27T12:17:49.095Z,5.1
2016-02-27T12:21:07.336Z,5.4
2016-02-27T12:24:10.613Z,5.6
2016-02-27T12:27:24.339Z,5.8
2016-02-27T12:30:34.207Z,5.9
2016-02-27T12:33:44.231Z,6
2016-02-27T12:37:02.364Z,5.9
2016-02-27T12:40:10.577Z,5.8
2016-02-27T12:43:13.726Z,5.7
2016-02-27T12:46:26.640Z,5.6
2016-02-27T12:49:39.617Z,5.5
2016-02-27T12:52:52.673Z,5.5
2016-02-27T12:56:09.149Z,5.2
2016-02-27T12:59:12.394Z,5.2
2016-02-27T13:02:25.433Z,5
2016-02-27T13:05:35.911Z,5.1
2016-02-27T13:08:48.919Z,5.3
2016-02-27T13:12:05.301Z,5.4
2016-02-27T13:15:08.669Z,5.4
2016-02-27T13:18:19.929Z,5.3
2016-02-27T13:21:33.126Z,5.3
2016-02-27T13:24:46.243Z,5.1
2016-02-27T13:28:01.704Z,5
2016-02-27T13:31:10.025Z,5
2016-02-27T13:34:10.876Z,4.9
2016-02-27T13:37:26.200Z,4.7
2016-02-27T13:40:36.857Z,4.6
2016-02-27T13:43:50.069Z,4.3
2016-02-27T13:47:04.330Z,4.2
2016-02-27T13:50:07.630Z,4.1
2016-02-27T13:53:20.371Z,4.1
2016-02-27T13:56:31.628Z,4.1
2016-02-27T13:59:43.261Z,4.2
2016-02-27T14:03:01.316Z,4.2
2016-02-27T14:06:09.777Z,4.3
2016-02-27T14:09:13.269Z,4.4
2016-02-27T14:12:24.858Z,4.4
2016-02-27T14:15:38.100Z,4.4
2016-02-27T14:18:49.562Z,4.2
2016-02-27T14:22:05.507Z,4.2
2016-02-27T14:25:09.062Z,4.2
2016-02-27T14:28:22.230Z,4.3
2016-02-27T14:31:33.900Z,4.1
2016-02-27T14:34:47.064Z,4.1
2016-02-27T14:38:05.182Z,3.9
2016-02-27T14:41:08.419Z,3.8
2016-02-27T14:44:21.617Z,3.7
2016-02-27T14:47:32.031Z,3.6
2016-02-27T14:50:45.228Z,3.6
2016-02-27T14:54:03.360Z,3.6
2016-02-27T14:57:06.415Z,3.5
2016-02-27T15:00:17.097Z,3.5
2016-02-27T15:03:27.435Z,3.6
2016-02-27T15:06:40.270Z,3.5
2016-02-27T15:09:51.559Z,3.5
2016-02-27T15:13:09.348Z,3.6
2016-02-27T15:16:12.325Z,3.6
2016-02-27T15:19:25.696Z,3.6
2016-02-27T15:22:36.891Z,3.6
2016-02-27T15:25:49.900Z,3.7
2016-02-27T15:29:07.767Z,3.7
2016-02-27T15:32:10.728Z,3.6
2016-02-27T15:35:21.536Z,3.5
2016-02-27T15:38:36.279Z,3.5
2016-02-27T15:41:46.662Z,3.4
2016-02-27T15:45:01.684Z,3.3
2016-02-27T15:48:09.723Z,3.3
2016-02-27T15:51:13.013Z,3.3
2016-02-27T15:54:24.914Z,3.2
2016-02-27T15:57:32.172Z,3.1
2016-02-27T16:00:47.321Z,3.1
2016-02-27T16:04:01.907Z,3.1
2016-02-27T16:07:09.650Z,2.9
2016-02-27T16:10:12.565Z,2.9
2016-02-27T16:13:25.465Z,2.8
2016-02-27T16:16:38.162Z,2.7
2016-02-27T16:19:49.560Z,2.7
2016-02-27T16:23:05.287Z,2.6
2016-02-27T16:26:06.170Z,2.5
2016-02-27T16:29:21.430Z,2.4
2016-02-27T16:32:31.705Z,2.3
2016-02-27T16:35:44.337Z,2.3
2016-02-27T16:39:01.846Z,2.2
2016-02-27T16:42:09.463Z,2.1
2016-02-27T16:45:12.018Z,2
2016-02-27T16:48:22.388Z,1.9
2016-02-27T16:51:34.896Z,1.9
2016-02-27T16:54:47.436Z,1.8
2016-02-27T16:58:05.069Z,1.8
2016-02-27T17:01:07.905Z,1.8
2016-02-27T17:04:20.398Z,1.7
2016-02-27T17:07:33.079Z,1.7
2016-02-27T17:10:42.354Z,1.7
2016-02-27T17:13:51.940Z,1.7
2016-02-27T17:17:09.527Z,1.6
2016-02-27T17:20:12.112Z,1.5
2016-02-27T17:23:24.326Z,1.4
2016-02-27T17:26:36.975Z,1.3
2016-02-27T17:29:49.140Z,1.1
2016-02-27T17:33:06.522Z,1
2016-02-27T17:36:08.874Z,0.9
2016-02-27T17:39:21.491Z,0.8
2016-02-27T17:42:33.971Z,0.8
2016-02-27T17:45:46.291Z,0.7
2016-02-27T17:49:03.909Z,0.7
2016-02-27T17:52:11.542Z,0.6
2016-02-27T17:55:13.987Z,0.6
2016-02-27T17:58:24.137Z,0.6
2016-02-27T18:01:36.663Z,0.6
2016-02-27T18:04:49.125Z,0.6
2016-02-27T18:08:06.694Z,0.6
2016-02-27T18:11:09.469Z,0.6
2016-02-27T18:14:18.899Z,0.7
2016-02-27T18:17:30.831Z,0.7
2016-02-27T18:20:40.230Z,0.7
2016-02-27T18:23:52.893Z,0.8
2016-02-27T18:27:10.355Z,0.8
2016-02-27T18:30:12.879Z,0.8
2016-02-27T18:33:22.902Z,0.8
2016-02-27T18:36:35.367Z,0.9
2016-02-27T18:39:47.655Z,0.9
2016-02-27T18:43:05.305Z,0.9
2016-02-27T18:46:07.578Z,0.8
2016-02-27T18:49:20.023Z,0.8
2016-02-27T18:52:32.378Z,0.8
2016-02-27T18:55:41.418Z,0.9
2016-02-27T18:58:53.504Z,0.8
2016-02-27T19:05:13.442Z,0.8
2016-02-27T19:08:21.746Z,0.8
2016-02-27T19:11:34.100Z,0.8
2016-02-27T19:14:44.763Z,0.8
2016-02-27T19:18:02.256Z,0.8
2016-02-27T19:21:09.638Z,0.8
2016-02-27T19:24:11.929Z,0.8
2016-02-27T19:27:24.108Z,0.7
2016-02-27T19:30:34.588Z,0.7
2016-02-27T19:33:44.111Z,0.7
2016-02-27T19:36:56.104Z,0.8
2016-02-27T19:40:08.253Z,0.9
2016-02-27T19:43:18.558Z,0.8
2016-02-27T19:46:28.566Z,0.9
2016-02-27T19:49:40.591Z,0.9
2016-02-27T19:52:52.569Z,0.8
2016-02-27T19:56:09.310Z,0.8
2016-02-27T19:59:11.210Z,0.8
2016-02-27T20:02:19.984Z,0.7
2016-02-27T20:05:32.057Z,0.8
2016-02-27T20:08:42.611Z,0.8
2016-02-27T20:11:54.308Z,0.8
2016-02-27T20:15:10.816Z,0.8
2016-02-27T20:18:12.777Z,0.9
2016-02-27T20:21:24.550Z,0.8
2016-02-27T20:24:36.468Z,0.7
2016-02-27T20:27:48.038Z,0.7
2016-02-27T20:31:04.468Z,0.8
2016-02-27T20:34:11.132Z,0.8
2016-02-27T20:37:12.812Z,0.8
2016-02-27T20:40:24.086Z,0.8
2016-02-27T20:43:35.455Z,0.8
2016-02-27T20:46:46.245Z,0.8
2016-02-27T20:50:02.597Z,0.7
2016-02-27T20:53:08.871Z,0.6
2016-02-27T20:56:10.301Z,0.5
2016-02-27T20:59:18.074Z,0.5
2016-02-27T21:02:27.504Z,0.6
2016-02-27T21:05:38.969Z,0.7
2016-02-27T21:08:47.915Z,0.7
2016-02-27T21:12:04.051Z,0.6
2016-02-27T21:15:10.262Z,0.5
2016-02-27T21:18:11.629Z,0.6
2016-02-27T21:21:22.763Z,0.6
2016-02-27T21:24:33.723Z,0.5
2016-02-27T21:27:44.969Z,0.6
2016-02-27T21:30:56.039Z,0.6
2016-02-27T21:34:05.329Z,0.6
2016-02-27T21:37:18.696Z,0.7
2016-02-27T21:40:26.939Z,0.7
2016-02-27T21:43:35.055Z,0.7
2016-02-27T21:46:45.817Z,0.7
2016-02-27T21:49:55.746Z,0.7
2016-02-27T21:53:12.083Z,0.8
2016-02-27T21:56:13.340Z,0.8
2016-02-27T21:59:24.787Z,0.8
2016-02-27T22:02:35.966Z,0.8
2016-02-27T22:05:47.150Z,0.7
2016-02-27T22:09:03.438Z,0.7
2016-02-27T22:12:10.071Z,0.7
2016-02-27T22:15:11.501Z,0.7
2016-02-27T22:18:19.525Z,0.7
2016-02-27T22:21:30.987Z,0.6
2016-02-27T22:24:42.138Z,0.7
2016-02-27T22:27:50.708Z,0.6
2016-02-27T22:31:04.404Z,0.7
2016-02-27T22:34:10.693Z,0.7
2016-02-27T22:37:12.014Z,0.7
2016-02-27T22:40:23.131Z,0.6
2016-02-27T22:43:34.024Z,0.6
2016-02-27T22:46:45.356Z,0.5
2016-02-27T22:49:56.301Z,0.5
2016-02-27T22:53:10.110Z,0.5
2016-02-27T22:56:11.113Z,0.4
2016-02-27T22:59:19.182Z,0.4
2016-02-27T23:02:30.048Z,0.4
2016-02-27T23:05:37.788Z,0.4
2016-02-27T23:08:47.674Z,0.4
2016-02-27T23:11:55.495Z,0.4
2016-02-27T23:15:10.159Z,0.4
2016-02-27T23:18:11.355Z,0.4
2016-02-27T23:21:22.613Z,0.4
2016-02-27T23:24:30.714Z,0.4
2016-02-27T23:27:38.535Z,0.4
2016-02-27T23:30:49.546Z,0.3
2016-02-27T23:34:05.773Z,0.3
2016-02-27T23:37:11.906Z,0.4
2016-02-27T23:40:12.882Z,0.4
2016-02-27T23:43:23.781Z,0.3
2016-02-27T23:46:32.617Z,0.3
2016-02-27T23:49:43.831Z,0.3
2016-02-27T23:52:54.839Z,0.4
2016-02-27T23:56:09.379Z,0.4
2016-02-27T23:59:10.715Z,0.4
